createdAt,value
2019-03-08T00:00:06.803Z,2.48
2019-03-08T00:02:55.101Z,2.73
2019-03-08T00:05:43.570Z,2.97
2019-03-08T00:08:31.421Z,3.10
2019-03-08T00:11:20.296Z,3.21
2019-03-08T00:14:08.388Z,3.33
2019-03-08T00:16:56.459Z,3.32
2019-03-08T00:19:44.448Z,3.22
2019-03-08T00:22:32.565Z,2.67
2019-03-08T00:25:20.121Z,2.06
2019-03-08T00:28:07.902Z,2.11
2019-03-08T00:30:56.411Z,2.35
2019-03-08T00:33:44.659Z,2.25
2019-03-08T00:36:32.901Z,2.38
2019-03-08T00:39:21.271Z,2.46
2019-03-08T00:42:09.126Z,2.49
2019-03-08T00:44:57.804Z,2.34
2019-03-08T00:47:45.862Z,2.07
2019-03-08T00:50:33.575Z,1.90
2019-03-08T00:56:20.728Z,1.85
2019-03-08T00:59:08.870Z,2.25
2019-03-08T01:01:57.051Z,2.22
2019-03-08T01:04:44.908Z,1.79
2019-03-08T01:07:33.251Z,1.64
2019-03-08T01:10:22.170Z,1.71
2019-03-08T01:13:10.297Z,1.50
2019-03-08T01:15:59.899Z,1.73
2019-03-08T01:18:48.208Z,2.05
2019-03-08T01:21:36.047Z,2.08
2019-03-08T01:24:31.162Z,1.78
2019-03-08T01:27:20.890Z,1.87
2019-03-08T01:30:10.006Z,1.99
2019-03-08T01:32:58.451Z,2.05
2019-03-08T01:35:46.635Z,1.62
2019-03-08T01:38:35.077Z,1.80
2019-03-08T01:41:22.767Z,1.71
2019-03-08T01:44:11.506Z,1.21
2019-03-08T01:46:59.252Z,1.38
2019-03-08T01:49:47.172Z,1.62
2019-03-08T01:52:39.686Z,1.54
2019-03-08T01:55:28.252Z,1.60
2019-03-08T01:58:16.761Z,1.75
2019-03-08T02:01:05.493Z,1.71
2019-03-08T02:03:53.449Z,1.35
2019-03-08T02:06:41.347Z,1.42
2019-03-08T02:09:29.016Z,1.53
2019-03-08T02:12:22.312Z,1.63
2019-03-08T02:15:11.432Z,1.68
2019-03-08T02:17:59.803Z,1.69
2019-03-08T02:20:48.154Z,1.86
2019-03-08T02:23:36.671Z,1.64
2019-03-08T02:26:24.942Z,1.39
2019-03-08T02:29:13.396Z,1.30
2019-03-08T02:32:01.411Z,1.59
2019-03-08T02:34:49.983Z,1.62
2019-03-08T02:37:37.839Z,1.49
2019-03-08T02:40:29.993Z,1.35
2019-03-08T02:43:18.614Z,1.67
2019-03-08T02:46:06.775Z,1.96
2019-03-08T02:48:54.816Z,1.79
2019-03-08T02:51:43.337Z,1.87
2019-03-08T02:54:31.692Z,1.88
2019-03-08T02:57:19.972Z,1.48
2019-03-08T03:00:09.279Z,1.49
2019-03-08T03:02:57.236Z,1.41
2019-03-08T03:05:45.755Z,1.26
2019-03-08T03:08:34.140Z,1.12
2019-03-08T03:11:22.583Z,1.35
2019-03-08T03:14:10.990Z,1.50
2019-03-08T03:16:59.320Z,1.56
2019-03-08T03:19:47.509Z,1.68
2019-03-08T03:22:35.868Z,1.81
2019-03-08T03:25:24.287Z,1.87
2019-03-08T03:28:12.962Z,1.81
2019-03-08T03:31:01.079Z,1.68
2019-03-08T03:33:48.732Z,1.89
2019-03-08T03:36:37.197Z,1.80
2019-03-08T03:39:24.969Z,1.56
2019-03-08T03:42:12.823Z,1.31
2019-03-08T03:45:00.948Z,1.26
2019-03-08T03:47:49.031Z,1.13
2019-03-08T03:50:37.684Z,1.46
2019-03-08T03:53:25.703Z,1.40
2019-03-08T03:56:14.050Z,1.67
2019-03-08T03:59:02.463Z,1.87
2019-03-08T04:01:51.067Z,1.71
2019-03-08T04:04:39.421Z,1.98
2019-03-08T04:07:27.083Z,1.88
2019-03-08T04:10:15.202Z,1.78
2019-03-08T04:13:02.802Z,1.72
2019-03-08T04:15:51.688Z,1.31
2019-03-08T04:18:39.395Z,0.95
2019-03-08T04:21:27.116Z,1.05
2019-03-08T04:24:15.036Z,1.20
2019-03-08T04:27:03.634Z,1.04
2019-03-08T04:29:51.952Z,0.81
2019-03-08T04:32:40.550Z,0.98
2019-03-08T04:35:28.616Z,1.29
2019-03-08T04:38:16.989Z,1.49
2019-03-08T04:41:05.450Z,1.44
2019-03-08T04:43:53.236Z,1.53
2019-03-08T04:46:41.679Z,1.75
2019-03-08T04:49:30.160Z,2.46
2019-03-08T04:52:18.030Z,2.38
2019-03-08T04:55:07.243Z,2.42
2019-03-08T04:57:55.685Z,2.29
2019-03-08T05:00:44.146Z,1.78
2019-03-08T05:03:32.503Z,1.94
2019-03-08T05:06:21.011Z,1.60
2019-03-08T05:09:10.008Z,1.60
2019-03-08T05:11:58.321Z,1.43
2019-03-08T05:14:45.992Z,1.46
2019-03-08T05:17:34.187Z,1.58
2019-03-08T05:20:22.568Z,1.52
2019-03-08T05:23:10.959Z,1.03
2019-03-08T05:25:59.355Z,1.11
2019-03-08T05:28:50.228Z,0.95
2019-03-08T05:31:38.698Z,1.09
2019-03-08T05:34:27.189Z,1.15
2019-03-08T05:37:18.778Z,1.13
2019-03-08T05:40:10.385Z,1.72
2019-03-08T05:42:57.804Z,1.38
2019-03-08T05:45:46.233Z,1.54
2019-03-08T05:48:34.068Z,1.60
2019-03-08T05:51:22.550Z,1.48
2019-03-08T05:54:10.754Z,1.53
2019-03-08T05:56:59.236Z,1.94
2019-03-08T05:59:47.628Z,2.03
2019-03-08T06:02:35.986Z,1.96
2019-03-08T06:05:24.308Z,2.50
2019-03-08T06:08:12.514Z,2.68
2019-03-08T06:11:00.510Z,3.04
2019-03-08T06:13:49.111Z,3.13
2019-03-08T06:16:37.086Z,3.16
2019-03-08T06:19:25.096Z,3.33
2019-03-08T06:22:13.427Z,3.25
2019-03-08T06:25:01.500Z,3.37
2019-03-08T06:27:49.575Z,3.50
2019-03-08T06:30:37.604Z,3.76
2019-03-08T06:33:25.624Z,4.13
2019-03-08T06:36:14.170Z,4.44
2019-03-08T06:39:02.428Z,4.93
2019-03-08T06:41:50.887Z,5.15
2019-03-08T06:44:39.408Z,5.40
2019-03-08T06:47:28.041Z,5.26
2019-03-08T06:50:16.637Z,5.23
2019-03-08T06:53:04.319Z,5.56
2019-03-08T06:55:51.976Z,6.05
2019-03-08T06:58:58.959Z,6.36
2019-03-08T07:01:46.456Z,6.61
2019-03-08T07:04:34.228Z,6.62
2019-03-08T07:07:21.895Z,6.74
2019-03-08T07:10:10.332Z,7.07
2019-03-08T07:13:03.369Z,7.17
2019-03-08T07:15:48.446Z,7.53
2019-03-08T07:18:36.557Z,7.98
2019-03-08T07:21:33.645Z,7.91
2019-03-08T07:24:29.443Z,8.23
2019-03-08T07:27:35.008Z,8.68
2019-03-08T07:31:00.090Z,8.80
2019-03-08T07:34:07.015Z,8.76
2019-03-08T07:37:11.946Z,8.67
2019-03-08T07:40:17.031Z,8.30
2019-03-08T07:43:39.456Z,8.47
2019-03-08T07:46:49.959Z,8.81
2019-03-08T07:49:47.248Z,8.93
2019-03-08T07:52:51.759Z,9.25
2019-03-08T07:55:47.395Z,9.34
2019-03-08T07:59:00.726Z,9.23
2019-03-08T08:02:06.187Z,9.15
2019-03-08T08:05:07.164Z,9.37
2019-03-08T08:08:09.295Z,9.64
2019-03-08T08:11:19.440Z,10.16
2019-03-08T08:14:28.919Z,10.38
2019-03-08T08:17:35.950Z,10.74
2019-03-08T08:20:45.497Z,10.55
2019-03-08T08:23:50.588Z,10.68
2019-03-08T08:26:57.170Z,11.01
2019-03-08T08:29:53.904Z,11.30
2019-03-08T08:33:06.890Z,11.66
2019-03-08T08:36:16.328Z,11.76
2019-03-08T08:39:30.702Z,11.63
2019-03-08T08:42:40.133Z,12.11
2019-03-08T08:45:37.640Z,12.31
2019-03-08T08:48:44.655Z,12.38
2019-03-08T08:51:50.537Z,12.48
2019-03-08T08:54:47.589Z,12.65
2019-03-08T08:57:55.656Z,12.91
2019-03-08T09:01:08.819Z,12.85
2019-03-08T09:04:18.831Z,13.34
2019-03-08T09:07:22.227Z,13.59
2019-03-08T09:10:29.345Z,13.53
2019-03-08T09:13:42.879Z,13.98
2019-03-08T09:16:49.514Z,14.20
2019-03-08T09:19:56.010Z,14.17
2019-03-08T09:22:54.810Z,14.15
2019-03-08T09:26:10.600Z,13.39
2019-03-08T09:29:17.773Z,13.36
2019-03-08T09:32:30.564Z,13.93
2019-03-08T09:35:32.473Z,13.83
2019-03-08T09:38:54.827Z,14.03
2019-03-08T09:42:02.233Z,14.56
2019-03-08T09:45:09.115Z,14.98
2019-03-08T09:48:14.857Z,14.98
2019-03-08T09:51:16.463Z,15.43
2019-03-08T09:54:24.211Z,15.50
2019-03-08T09:57:19.166Z,15.58
2019-03-08T10:00:26.267Z,15.98
2019-03-08T10:03:23.369Z,16.10
2019-03-08T10:06:34.047Z,16.46
2019-03-08T10:09:33.596Z,16.41
2019-03-08T10:12:32.143Z,16.66
2019-03-08T10:15:34.402Z,16.55
2019-03-08T10:18:44.098Z,16.72
2019-03-08T10:21:53.797Z,17.25
2019-03-08T10:25:00.375Z,16.95
2019-03-08T10:28:07.436Z,16.48
2019-03-08T10:31:31.983Z,16.41
2019-03-08T10:34:37.438Z,16.54
2019-03-08T10:37:43.783Z,17.12
2019-03-08T10:40:49.156Z,17.66
2019-03-08T10:44:08.641Z,17.67
2019-03-08T10:47:00.801Z,17.83
2019-03-08T10:50:07.559Z,18.31
2019-03-08T10:53:24.236Z,18.58
2019-03-08T10:56:30.845Z,18.56
2019-03-08T10:59:28.691Z,19.19
2019-03-08T11:02:35.712Z,19.58
2019-03-08T11:05:40.620Z,20.06
2019-03-08T11:08:53.093Z,19.65
2019-03-08T11:11:58.538Z,19.73
2019-03-08T11:14:57.910Z,19.90
2019-03-08T11:18:03.605Z,20.13
2019-03-08T11:21:18.639Z,20.24
2019-03-08T11:24:25.359Z,20.38
2019-03-08T11:27:31.106Z,20.80
2019-03-08T11:30:35.944Z,20.65
2019-03-08T11:33:41.562Z,20.50
2019-03-08T11:36:40.715Z,20.10
2019-03-08T11:39:43.401Z,19.90
2019-03-08T11:42:50.776Z,19.33
2019-03-08T11:45:43.899Z,19.72
2019-03-08T11:48:46.727Z,19.96
2019-03-08T11:51:55.431Z,20.18
2019-03-08T11:55:01.275Z,20.47
2019-03-08T11:58:07.459Z,20.57
2019-03-08T12:01:15.079Z,20.78
2019-03-08T12:04:31.048Z,20.96
2019-03-08T12:07:25.579Z,21.32
2019-03-08T12:10:21.671Z,21.31
2019-03-08T12:13:28.901Z,21.30
2019-03-08T12:16:44.567Z,21.26
2019-03-08T12:19:54.088Z,21.50
2019-03-08T12:23:03.811Z,21.83
2019-03-08T12:26:13.544Z,22.08
2019-03-08T12:29:12.288Z,21.93
2019-03-08T12:32:17.137Z,21.73
2019-03-08T12:35:30.176Z,22.07
2019-03-08T12:38:35.822Z,22.19
2019-03-08T12:41:31.110Z,22.24
2019-03-08T12:44:44.176Z,21.37
2019-03-08T12:47:47.440Z,21.34
2019-03-08T12:50:47.862Z,21.12
2019-03-08T12:54:10.248Z,21.27
2019-03-08T12:57:25.756Z,21.19
2019-03-08T13:00:32.836Z,21.25
2019-03-08T13:03:45.451Z,21.01
2019-03-08T13:06:40.309Z,20.91
2019-03-08T13:09:33.228Z,20.73
2019-03-08T13:12:02.966Z,20.79
2019-03-08T13:14:32.708Z,20.92
2019-03-08T13:17:02.489Z,20.86
2019-03-08T13:19:32.232Z,20.77
2019-03-08T13:22:01.972Z,20.41
2019-03-08T13:24:31.755Z,20.47
2019-03-08T13:27:01.506Z,20.64
2019-03-08T13:29:31.260Z,20.40
2019-03-08T13:32:01.108Z,20.17
2019-03-08T13:34:31.361Z,20.11
2019-03-08T13:37:01.105Z,19.87
2019-03-08T13:39:30.932Z,19.59
2019-03-08T13:42:00.660Z,19.70
2019-03-08T13:44:30.395Z,19.87
2019-03-08T13:47:00.179Z,19.91
2019-03-08T13:49:29.923Z,19.98
2019-03-08T13:51:59.682Z,20.07
2019-03-08T13:54:29.493Z,20.24
2019-03-08T13:57:00.840Z,20.38
2019-03-08T13:59:30.619Z,20.88
2019-03-08T14:02:01.693Z,21.33
2019-03-08T14:04:32.541Z,21.63
2019-03-08T14:07:03.389Z,22.12
2019-03-08T14:09:34.322Z,22.26
2019-03-08T14:12:05.175Z,22.49
2019-03-08T14:14:36.063Z,22.56
2019-03-08T14:17:07.053Z,22.56
2019-03-08T14:19:37.916Z,22.24
2019-03-08T14:22:08.777Z,22.30
2019-03-08T14:24:39.810Z,22.20
2019-03-08T14:27:11.788Z,21.85
2019-03-08T14:29:42.650Z,21.44
2019-03-08T14:32:21.176Z,21.39
2019-03-08T14:34:53.585Z,21.66
2019-03-08T14:37:23.779Z,21.69
2019-03-08T14:39:55.238Z,21.52
2019-03-08T14:42:47.820Z,21.25
2019-03-08T14:45:26.384Z,20.85
2019-03-08T14:47:59.117Z,20.58
2019-03-08T14:50:31.929Z,20.39
2019-03-08T14:53:02.573Z,20.08
2019-03-08T14:55:33.718Z,19.90
2019-03-08T14:58:04.863Z,19.67
2019-03-08T15:00:35.739Z,19.46
2019-03-08T15:03:08.652Z,19.47
2019-03-08T15:05:39.509Z,19.35
2019-03-08T15:08:13.564Z,19.13
2019-03-08T15:10:43.491Z,18.88
2019-03-08T15:13:15.508Z,18.92
2019-03-08T15:15:46.551Z,18.81
2019-03-08T15:18:18.184Z,18.56
2019-03-08T15:20:49.032Z,18.33
2019-03-08T15:23:19.903Z,18.24
2019-03-08T15:25:50.807Z,18.10
2019-03-08T15:28:22.666Z,17.95
2019-03-08T15:30:52.509Z,17.88
2019-03-08T15:33:23.661Z,17.84
2019-03-08T15:35:53.509Z,17.73
2019-03-08T15:38:24.556Z,17.69
2019-03-08T15:40:55.601Z,17.69
2019-03-08T15:43:26.598Z,17.45
2019-03-08T15:45:58.059Z,17.26
2019-03-08T15:48:29.024Z,16.89
2019-03-08T15:51:00.178Z,16.79
2019-03-08T15:53:31.501Z,16.54
2019-03-08T15:56:02.460Z,16.23
2019-03-08T15:58:33.331Z,16.17
2019-03-08T16:01:04.793Z,16.00
2019-03-08T16:03:35.808Z,15.74
2019-03-08T16:06:07.540Z,15.40
2019-03-08T16:08:39.761Z,15.00
2019-03-08T16:11:10.370Z,15.01
2019-03-08T16:13:41.412Z,14.91
2019-03-08T16:16:12.419Z,14.65
2019-03-08T16:18:44.092Z,14.52
2019-03-08T16:21:15.933Z,14.62
2019-03-08T16:23:46.797Z,14.58
2019-03-08T16:26:21.345Z,14.63
2019-03-08T16:28:51.387Z,14.53
2019-03-08T16:31:40.941Z,14.45
2019-03-08T16:34:11.630Z,14.33
2019-03-08T16:37:10.266Z,14.24
2019-03-08T16:39:58.166Z,14.08
2019-03-08T16:42:50.814Z,14.11
2019-03-08T16:45:54.914Z,13.87
2019-03-08T16:48:35.964Z,13.81
2019-03-08T16:51:16.226Z,13.64
2019-03-08T16:53:55.789Z,13.53
2019-03-08T16:56:44.390Z,13.52
2019-03-08T16:59:33.080Z,13.33
2019-03-08T17:02:19.330Z,13.19
2019-03-08T17:05:00.393Z,13.00
2019-03-08T17:07:46.952Z,13.08
2019-03-08T17:10:42.881Z,12.99
2019-03-08T17:13:23.985Z,12.82
2019-03-08T17:16:06.028Z,12.54
2019-03-08T17:19:11.977Z,12.36
2019-03-08T17:22:02.423Z,12.28
2019-03-08T17:24:42.690Z,12.35
2019-03-08T17:27:20.406Z,12.22
2019-03-08T17:30:29.433Z,12.11
2019-03-08T17:33:25.209Z,12.17
2019-03-08T17:36:08.237Z,11.90
2019-03-08T17:38:55.862Z,11.72
2019-03-08T17:41:52.992Z,11.46
2019-03-08T17:44:45.787Z,11.29
2019-03-08T17:47:23.914Z,10.94
2019-03-08T17:50:18.038Z,10.93
2019-03-08T17:53:10.135Z,10.96
2019-03-08T17:55:52.285Z,10.69
2019-03-08T17:58:40.884Z,10.57
2019-03-08T18:01:18.120Z,10.52
2019-03-08T18:04:23.212Z,10.65
2019-03-08T18:07:00.974Z,10.58
2019-03-08T18:09:36.763Z,10.41
2019-03-08T18:12:41.846Z,10.29
2019-03-08T18:15:19.617Z,10.28
2019-03-08T18:18:24.393Z,10.17
2019-03-08T18:21:12.883Z,9.94
2019-03-08T18:24:01.240Z,9.94
2019-03-08T18:27:05.986Z,9.92
2019-03-08T18:29:54.857Z,9.88
2019-03-08T18:32:46.060Z,9.74
2019-03-08T18:35:42.089Z,9.69
2019-03-08T18:38:30.408Z,9.64
2019-03-08T18:41:32.147Z,9.61
2019-03-08T18:44:27.741Z,9.58
2019-03-08T18:47:10.933Z,9.50
2019-03-08T18:49:55.608Z,9.23
2019-03-08T18:52:57.623Z,8.94
2019-03-08T18:55:45.935Z,9.02
2019-03-08T18:58:29.710Z,8.99
2019-03-08T19:01:17.981Z,8.75
2019-03-08T19:04:13.638Z,8.85
2019-03-08T19:07:01.986Z,8.72
2019-03-08T19:09:46.939Z,8.26
2019-03-08T19:12:30.894Z,8.31
2019-03-08T19:15:35.995Z,8.23
2019-03-08T19:18:28.521Z,8.14
2019-03-08T19:21:16.019Z,8.21
2019-03-08T19:24:11.805Z,8.20
2019-03-08T19:27:13.616Z,7.73
2019-03-08T19:29:53.628Z,7.14
2019-03-08T19:32:47.342Z,7.04
2019-03-08T19:35:29.232Z,7.29
2019-03-08T19:38:28.361Z,7.29
2019-03-08T19:41:20.683Z,7.49
2019-03-08T19:44:22.802Z,7.13
2019-03-08T19:47:11.231Z,6.85
2019-03-08T19:50:10.320Z,6.62
2019-03-08T19:53:00.801Z,6.71
2019-03-08T19:55:50.687Z,6.55
2019-03-08T19:58:46.566Z,6.43
2019-03-08T20:01:28.233Z,6.52
2019-03-08T20:04:16.590Z,6.60
2019-03-08T20:07:05.140Z,6.75
2019-03-08T20:09:49.866Z,6.95
2019-03-08T20:12:29.777Z,6.83
2019-03-08T20:15:28.739Z,6.77
2019-03-08T20:18:15.412Z,6.51
2019-03-08T20:21:07.963Z,6.56
2019-03-08T20:23:56.242Z,6.19
2019-03-08T20:26:48.999Z,5.93
2019-03-08T20:29:50.835Z,5.30
2019-03-08T20:32:49.603Z,5.37
2019-03-08T20:35:31.255Z,5.36
2019-03-08T20:38:36.334Z,5.40
2019-03-08T20:41:34.826Z,5.43
2019-03-08T20:44:24.806Z,5.43
2019-03-08T20:46:59.771Z,5.41
2019-03-08T20:49:30.786Z,5.43
2019-03-08T20:52:02.713Z,5.41
2019-03-08T20:54:36.803Z,5.08
2019-03-08T20:57:11.234Z,5.18
2019-03-08T21:00:00.743Z,5.37
2019-03-08T21:02:50.324Z,5.37
2019-03-08T21:05:39.733Z,5.43
2019-03-08T21:08:29.152Z,5.44
2019-03-08T21:11:18.488Z,5.59
2019-03-08T21:14:08.049Z,5.51
2019-03-08T21:16:59.427Z,5.64
2019-03-08T21:19:49.465Z,5.04
2019-03-08T21:22:39.376Z,4.57
2019-03-08T21:25:28.917Z,4.75
2019-03-08T21:28:18.273Z,4.86
2019-03-08T21:31:07.382Z,5.00
2019-03-08T21:33:57.007Z,4.53
2019-03-08T21:36:47.540Z,4.23
2019-03-08T21:39:37.229Z,4.10
2019-03-08T21:42:31.887Z,4.06
2019-03-08T21:45:21.186Z,3.63
2019-03-08T21:48:10.627Z,3.35
2019-03-08T21:51:00.180Z,3.77
2019-03-08T21:53:50.020Z,4.63
2019-03-08T21:56:40.959Z,4.49
2019-03-08T21:59:28.941Z,4.43
2019-03-08T22:02:18.133Z,4.12
2019-03-08T22:05:06.392Z,4.01
2019-03-08T22:07:55.106Z,4.20
2019-03-08T22:10:56.686Z,4.02
2019-03-08T22:13:44.383Z,3.90
2019-03-08T22:16:35.657Z,3.75
2019-03-08T22:19:23.704Z,3.83
2019-03-08T22:22:11.980Z,3.63
2019-03-08T22:25:00.387Z,3.45
2019-03-08T22:27:48.738Z,3.50
2019-03-08T22:30:37.150Z,3.49
2019-03-08T22:33:25.464Z,3.74
2019-03-08T22:36:13.512Z,3.87
2019-03-08T22:39:02.781Z,3.71
2019-03-08T22:41:51.054Z,3.65
2019-03-08T22:44:39.514Z,3.44
2019-03-08T22:47:27.994Z,3.46
2019-03-08T22:50:15.899Z,3.05
2019-03-08T22:53:04.082Z,2.98
2019-03-08T22:55:51.764Z,2.71
2019-03-08T22:58:39.616Z,2.41
2019-03-08T23:01:38.537Z,2.55
2019-03-08T23:04:26.594Z,2.27
2019-03-08T23:07:18.054Z,2.07
2019-03-08T23:10:06.412Z,2.04
2019-03-08T23:12:54.382Z,2.35
2019-03-08T23:15:42.635Z,2.63
2019-03-08T23:18:31.051Z,2.85
2019-03-08T23:21:19.599Z,2.96
2019-03-08T23:24:07.947Z,2.88
2019-03-08T23:27:14.187Z,2.94
2019-03-08T23:30:06.595Z,3.02
2019-03-08T23:32:55.769Z,3.04
2019-03-08T23:35:43.675Z,2.86
2019-03-08T23:38:31.604Z,2.70
2019-03-08T23:41:19.903Z,2.65
2019-03-08T23:44:07.799Z,2.70
2019-03-08T23:46:55.953Z,2.44
2019-03-08T23:49:44.648Z,2.65
2019-03-08T23:52:33.122Z,2.86
2019-03-08T23:55:20.695Z,3.20
2019-03-08T23:58:08.833Z,3.29
